createdAt,value
2022-08-11T00:04:19.633Z,26.20
2022-08-11T00:09:17.766Z,26.55
2022-08-11T00:14:16.627Z,26.63
2022-08-11T00:19:20.182Z,26.80
2022-08-11T00:24:52.055Z,26.78
2022-08-11T00:29:55.443Z,26.88
2022-08-11T00:34:52.761Z,26.74
2022-08-11T00:40:16.477Z,26.76
2022-08-11T00:45:18.632Z,26.81
2022-08-11T00:50:20.092Z,26.72
2022-08-11T00:55:36.776Z,26.71
2022-08-11T01:00:44.044Z,26.85
2022-08-11T01:06:07.861Z,26.94
2022-08-11T01:11:25.157Z,26.76
2022-08-11T01:16:38.605Z,26.73
2022-08-11T01:21:54.035Z,27.01
2022-08-11T01:27:18.842Z,27.11
2022-08-11T01:32:49.482Z,27.22
2022-08-11T01:38:00.467Z,27.40
2022-08-11T01:43:33.354Z,27.37
2022-08-11T01:48:35.855Z,27.19
2022-08-11T01:53:39.963Z,26.97
2022-08-11T01:58:43.461Z,27.04
2022-08-11T02:03:44.446Z,27.17
2022-08-11T02:08:50.361Z,27.01
2022-08-11T02:13:53.245Z,27.23
2022-08-11T02:19:11.201Z,27.19
2022-08-11T02:24:14.310Z,27.23
2022-08-11T02:29:15.619Z,27.22
2022-08-11T02:34:18.385Z,27.35
2022-08-11T02:39:19.965Z,27.20
2022-08-11T02:44:25.011Z,27.19
2022-08-11T02:49:46.021Z,27.36
2022-08-11T02:55:03.478Z,26.96
2022-08-11T03:00:06.891Z,26.78
2022-08-11T03:05:13.229Z,27.07
2022-08-11T03:10:14.501Z,26.90
2022-08-11T03:15:34.167Z,26.97
2022-08-11T03:20:37.976Z,26.77
2022-08-11T03:25:44.647Z,26.34
2022-08-11T03:30:46.011Z,25.83
2022-08-11T03:35:45.604Z,25.77
2022-08-11T03:42:01.913Z,25.80
2022-08-11T03:46:45.824Z,25.81
2022-08-11T03:51:51.709Z,25.73
2022-08-11T03:57:20.340Z,25.57
2022-08-11T04:02:43.921Z,25.66
2022-08-11T04:07:59.021Z,25.69
2022-08-11T04:13:09.485Z,25.83
2022-08-11T04:18:24.656Z,25.83
2022-08-11T04:24:36.904Z,25.78
2022-08-11T04:29:09.533Z,25.92
2022-08-11T04:34:28.613Z,26.03
2022-08-11T04:39:36.424Z,26.04
2022-08-11T04:44:51.951Z,25.89
2022-08-11T04:50:13.470Z,25.89
2022-08-11T04:55:43.078Z,26.00
2022-08-11T05:01:04.199Z,26.05
2022-08-11T05:06:24.291Z,26.13
2022-08-11T05:11:35.802Z,26.06
2022-08-11T05:16:53.936Z,26.04
2022-08-11T05:22:18.701Z,25.99
2022-08-11T05:27:33.727Z,26.14
2022-08-11T05:32:52.413Z,26.29
2022-08-11T05:38:08.863Z,26.51
2022-08-11T05:43:29.789Z,26.60
2022-08-11T05:48:50.331Z,26.70
2022-08-11T05:54:28.844Z,26.64
2022-08-11T05:59:25.600Z,26.81
2022-08-11T06:04:23.784Z,26.81
2022-08-11T06:09:28.109Z,26.93
2022-08-11T06:14:28.100Z,27.21
2022-08-11T06:19:33.531Z,27.13
2022-08-11T06:24:32.863Z,27.03
2022-08-11T06:29:37.989Z,27.17
2022-08-11T06:34:55.977Z,27.24
2022-08-11T06:39:58.513Z,27.35
2022-08-11T06:45:01.358Z,27.24
2022-08-11T06:50:17.553Z,27.29
2022-08-11T06:55:57.506Z,27.12
2022-08-11T07:00:54.779Z,27.23
2022-08-11T07:05:54.915Z,27.05
2022-08-11T07:11:19.421Z,27.20
2022-08-11T07:16:19.143Z,27.39
2022-08-11T07:22:02.402Z,27.47
2022-08-11T07:27:19.432Z,27.60
2022-08-11T07:32:19.285Z,27.56
2022-08-11T07:37:19.251Z,27.66
2022-08-11T07:42:19.768Z,27.85
2022-08-11T07:47:36.500Z,27.93
2022-08-11T07:52:37.501Z,27.97
2022-08-11T07:58:15.994Z,27.45
2022-08-11T08:03:27.997Z,27.49
2022-08-11T08:08:44.437Z,27.31
2022-08-11T08:13:59.807Z,27.40
2022-08-11T08:18:56.551Z,27.60
2022-08-11T08:23:56.205Z,27.91
2022-08-11T08:29:15.812Z,27.89
2022-08-11T08:34:13.343Z,27.42
2022-08-11T08:39:12.341Z,27.56
2022-08-11T08:44:35.067Z,27.74
2022-08-11T08:49:32.893Z,27.49
2022-08-11T08:54:33.990Z,27.42
2022-08-11T08:59:47.933Z,27.22
2022-08-11T09:04:46.775Z,27.40
2022-08-11T09:15:03.390Z,27.79
2022-08-11T09:20:02.417Z,27.91
2022-08-11T09:25:20.365Z,28.40
2022-08-11T09:30:19.205Z,28.60
2022-08-11T09:35:17.495Z,27.88
2022-08-11T09:40:30.516Z,28.08
2022-08-11T09:45:27.645Z,27.72
2022-08-11T09:50:38.808Z,27.86
2022-08-11T09:55:36.585Z,28.33
2022-08-11T10:00:37.117Z,27.98
2022-08-11T10:05:52.747Z,27.96
2022-08-11T10:11:01.795Z,28.22
2022-08-11T10:16:15.860Z,28.23
2022-08-11T10:21:16.265Z,28.29
2022-08-11T10:26:32.165Z,28.32
2022-08-11T10:31:57.829Z,28.37
2022-08-11T10:37:02.423Z,28.53
2022-08-11T10:42:34.988Z,28.33
2022-08-11T10:47:35.181Z,28.55
2022-08-11T10:52:50.348Z,28.90
2022-08-11T10:58:06.266Z,29.19
2022-08-11T11:03:23.377Z,29.19
2022-08-11T11:14:06.332Z,29.33
2022-08-11T11:19:05.470Z,29.39
2022-08-11T11:24:14.569Z,28.55
2022-08-11T11:29:21.007Z,28.58
2022-08-11T11:34:23.713Z,28.83
2022-08-11T11:39:21.591Z,29.29
2022-08-11T11:44:20.021Z,29.56
2022-08-11T11:49:18.076Z,29.66
2022-08-11T11:54:15.452Z,29.52
2022-08-11T11:59:30.797Z,29.37
2022-08-11T12:04:29.124Z,29.69
2022-08-11T12:09:26.093Z,29.89
2022-08-11T12:14:25.166Z,29.63
2022-08-11T12:19:24.039Z,29.71
2022-08-11T12:24:39.464Z,29.76
2022-08-11T12:29:41.206Z,29.88
2022-08-11T12:34:42.045Z,29.50
2022-08-11T12:40:16.219Z,29.35
2022-08-11T12:45:28.850Z,29.40
2022-08-11T12:50:44.368Z,29.25
2022-08-11T12:56:03.902Z,29.05
2022-08-11T13:01:22.450Z,29.52
2022-08-11T13:06:19.740Z,29.47
2022-08-11T13:11:55.892Z,29.70
2022-08-11T13:17:10.947Z,29.83
2022-08-11T13:22:11.219Z,29.97
2022-08-11T13:27:11.624Z,29.84
2022-08-11T13:32:08.702Z,29.67
2022-08-11T13:37:05.530Z,29.96
2022-08-11T13:42:03.090Z,29.74
2022-08-11T13:47:04.779Z,29.92
2022-08-11T13:52:02.079Z,30.11
2022-08-11T13:57:01.695Z,29.90
2022-08-11T14:02:21.223Z,30.01
2022-08-11T14:07:22.141Z,30.13
2022-08-11T14:12:39.337Z,30.07
2022-08-11T14:17:48.189Z,30.11
2022-08-11T14:22:47.240Z,30.20
2022-08-11T14:28:33.923Z,30.36
2022-08-11T14:33:01.171Z,30.46
2022-08-11T14:38:16.180Z,30.51
2022-08-11T14:44:04.865Z,30.74
2022-08-11T14:48:48.195Z,30.91
2022-08-11T14:53:58.276Z,31.08
2022-08-11T14:58:55.782Z,31.00
2022-08-11T15:04:34.349Z,30.95
2022-08-11T15:09:10.050Z,30.78
2022-08-11T15:14:08.568Z,30.70
2022-08-11T15:19:05.679Z,30.84
2022-08-11T15:24:20.455Z,30.85
2022-08-11T15:29:38.378Z,30.82
2022-08-11T15:34:53.818Z,30.77
2022-08-11T15:40:31.313Z,30.87
2022-08-11T15:45:49.595Z,30.91
2022-08-11T15:50:48.966Z,30.95
2022-08-11T15:55:47.040Z,30.95
2022-08-11T16:01:04.405Z,30.98
2022-08-11T16:06:06.829Z,30.97
2022-08-11T16:11:07.748Z,30.94
2022-08-11T16:16:18.163Z,30.92
2022-08-11T16:21:26.049Z,30.82
2022-08-11T16:27:11.491Z,30.74
2022-08-11T16:32:07.825Z,30.80
2022-08-11T16:37:23.178Z,30.82
2022-08-11T16:43:05.309Z,30.80
2022-08-11T16:48:32.404Z,30.79
2022-08-11T16:53:12.526Z,30.79
2022-08-11T16:58:28.129Z,30.54
2022-08-11T17:03:47.936Z,30.36
2022-08-11T17:09:04.818Z,30.40
2022-08-11T17:14:07.010Z,30.48
2022-08-11T17:19:06.664Z,30.49
2022-08-11T17:24:09.030Z,30.42
2022-08-11T17:29:06.509Z,30.41
2022-08-11T17:34:20.593Z,30.48
2022-08-11T17:39:18.979Z,30.35
2022-08-11T17:44:34.286Z,30.44
2022-08-11T17:49:36.865Z,30.32
2022-08-11T17:54:53.492Z,30.44
2022-08-11T17:59:53.439Z,30.49
2022-08-11T18:04:51.715Z,30.61
2022-08-11T18:10:07.525Z,30.50
2022-08-11T18:15:22.947Z,30.66
2022-08-11T18:20:46.732Z,30.71
2022-08-11T18:26:07.097Z,30.68
2022-08-11T18:31:23.873Z,30.84
2022-08-11T18:36:40.209Z,30.84
2022-08-11T18:41:56.466Z,30.56
2022-08-11T18:47:11.805Z,30.65
2022-08-11T18:52:27.638Z,30.75
2022-08-11T18:57:47.079Z,30.78
2022-08-11T19:03:09.646Z,30.68
2022-08-11T19:08:26.603Z,30.73
2022-08-11T19:13:44.139Z,30.70
2022-08-11T19:19:02.424Z,30.64
2022-08-11T19:24:20.320Z,30.62
2022-08-11T19:30:06.907Z,30.41
2022-08-11T19:35:12.448Z,30.20
2022-08-11T19:40:28.660Z,30.17
2022-08-11T19:45:44.809Z,30.23
2022-08-11T19:51:07.028Z,30.13
2022-08-11T19:56:23.326Z,29.91
2022-08-11T20:01:39.147Z,29.56
2022-08-11T20:07:14.766Z,29.38
2022-08-11T20:12:30.265Z,29.00
2022-08-11T20:17:46.987Z,28.99
2022-08-11T20:23:03.264Z,29.12
2022-08-11T20:28:19.354Z,29.24
2022-08-11T20:33:35.444Z,29.46
2022-08-11T20:38:51.335Z,29.42
2022-08-11T20:44:09.295Z,29.42
2022-08-11T20:49:25.761Z,29.44
2022-08-11T20:54:44.803Z,29.37
2022-08-11T21:00:00.549Z,29.09
2022-08-11T21:05:19.511Z,29.10
2022-08-11T21:10:53.243Z,29.04
2022-08-11T21:16:09.078Z,29.17
2022-08-11T21:21:45.437Z,29.24
2022-08-11T21:27:03.704Z,29.22
2022-08-11T21:32:19.182Z,29.14
2022-08-11T21:37:35.891Z,28.90
2022-08-11T21:42:52.369Z,28.89
2022-08-11T21:48:07.550Z,28.80
2022-08-11T21:53:23.701Z,28.69
2022-08-11T21:58:39.431Z,28.40
2022-08-11T22:03:54.210Z,28.41
2022-08-11T22:09:09.785Z,28.51
2022-08-11T22:14:24.715Z,28.28
2022-08-11T22:19:40.121Z,28.42
2022-08-11T22:24:56.419Z,28.62
2022-08-11T22:30:12.524Z,28.75
2022-08-11T22:35:28.811Z,28.58
2022-08-11T22:40:44.725Z,28.60
2022-08-11T22:45:59.386Z,28.86
2022-08-11T22:51:15.749Z,28.71
2022-08-11T22:56:32.084Z,28.83
2022-08-11T23:01:55.412Z,28.73
2022-08-11T23:07:11.947Z,28.71
2022-08-11T23:12:27.673Z,28.68
2022-08-11T23:17:43.466Z,28.74
2022-08-11T23:22:58.671Z,28.99
2022-08-11T23:28:16.380Z,29.05
2022-08-11T23:33:33.898Z,28.98
2022-08-11T23:38:49.658Z,28.79
2022-08-11T23:44:06.453Z,28.68
2022-08-11T23:49:21.791Z,28.61
2022-08-11T23:54:37.609Z,28.72
2022-08-11T23:59:54.006Z,28.53
